createdAt,value
2018-11-03T00:01:10.291Z,8.90
2018-11-03T00:03:44.255Z,10.07
2018-11-03T00:06:16.665Z,9.83
2018-11-03T00:08:50.286Z,10.83
2018-11-03T00:11:33.427Z,11.33
2018-11-03T00:14:07.454Z,12.37
2018-11-03T00:16:40.646Z,13.00
2018-11-03T00:19:14.544Z,13.03
2018-11-03T00:21:48.036Z,11.83
2018-11-03T00:24:26.190Z,13.20
2018-11-03T00:27:01.073Z,13.23
2018-11-03T00:29:34.980Z,13.70
2018-11-03T00:32:09.237Z,14.60
2018-11-03T00:34:41.850Z,16.03
2018-11-03T00:37:17.752Z,14.03
2018-11-03T00:39:52.849Z,17.00
2018-11-03T00:42:27.902Z,16.00
2018-11-03T00:45:02.895Z,15.97
2018-11-03T00:47:38.167Z,17.53
2018-11-03T00:50:14.112Z,19.73
2018-11-03T00:52:49.717Z,19.03
2018-11-03T00:55:24.346Z,19.83
2018-11-03T00:58:01.423Z,20.23
2018-11-03T01:00:36.821Z,20.17
2018-11-03T01:03:14.533Z,22.65
2018-11-03T01:05:53.964Z,20.97
2018-11-03T01:08:31.872Z,21.77
2018-11-03T01:11:10.697Z,23.20
2018-11-03T01:16:28.001Z,23.30
2018-11-03T01:19:05.008Z,24.63
2018-11-03T01:21:39.795Z,23.40
2018-11-03T01:24:13.982Z,22.27
2018-11-03T01:26:51.226Z,23.20
2018-11-03T01:29:27.435Z,24.63
2018-11-03T01:32:03.941Z,24.23
2018-11-03T01:34:40.176Z,26.87
2018-11-03T01:37:16.555Z,27.07
2018-11-03T01:39:53.256Z,25.23
2018-11-03T01:42:27.405Z,27.87
2018-11-03T01:45:03.207Z,27.20
2018-11-03T01:47:38.756Z,27.03
2018-11-03T01:50:10.912Z,28.47
2018-11-03T01:52:41.316Z,28.87
2018-11-03T01:55:11.040Z,28.25
2018-11-03T01:57:40.711Z,28.07
2018-11-03T02:00:11.248Z,29.70
2018-11-03T02:02:40.834Z,28.87
2018-11-03T02:05:10.883Z,29.03
2018-11-03T02:07:40.542Z,30.33
2018-11-03T02:10:11.570Z,28.90
2018-11-03T02:12:41.408Z,29.67
2018-11-03T02:15:11.231Z,29.15
2018-11-03T02:17:40.749Z,29.33
2018-11-03T02:20:41.342Z,31.80
2018-11-03T02:23:15.738Z,31.47
2018-11-03T02:25:45.229Z,30.40
2018-11-03T02:28:14.843Z,31.93
2018-11-03T02:30:44.335Z,31.20
2018-11-03T02:35:55.063Z,32.47
2018-11-03T02:38:24.537Z,33.60
2018-11-03T02:40:54.551Z,33.37
2018-11-03T02:43:24.217Z,31.33
2018-11-03T02:45:53.826Z,33.73
2018-11-03T02:48:23.389Z,33.43
2018-11-03T02:50:53.106Z,32.90
2018-11-03T02:53:22.714Z,30.93
2018-11-03T02:55:52.291Z,33.43
2018-11-03T02:58:21.845Z,32.80
2018-11-03T03:00:51.902Z,35.50
2018-11-03T03:03:21.447Z,33.07
2018-11-03T03:05:50.925Z,32.20
2018-11-03T03:08:20.654Z,33.77
2018-11-03T03:10:50.130Z,34.73
2018-11-03T03:13:19.737Z,31.97
2018-11-03T03:15:49.930Z,34.07
2018-11-03T03:18:19.469Z,34.93
2018-11-03T03:20:48.992Z,34.50
2018-11-03T03:23:18.563Z,35.17
2018-11-03T03:25:48.265Z,33.83
2018-11-03T03:28:17.859Z,36.30
2018-11-03T03:30:47.330Z,34.70
2018-11-03T03:33:16.924Z,35.60
2018-11-03T03:35:46.412Z,31.90
2018-11-03T03:38:15.973Z,32.37
2018-11-03T03:40:45.579Z,31.75
2018-11-03T03:43:15.221Z,34.70
2018-11-03T03:45:47.882Z,33.40
2018-11-03T03:48:17.406Z,33.38
2018-11-03T03:50:51.038Z,32.07
2018-11-03T03:53:20.675Z,32.80
2018-11-03T03:55:50.162Z,32.83
2018-11-03T03:58:19.715Z,34.47
2018-11-03T04:00:49.263Z,34.23
2018-11-03T04:03:18.831Z,32.63
2018-11-03T04:05:48.247Z,34.87
2018-11-03T04:08:20.635Z,33.40
2018-11-03T04:10:50.243Z,34.80
2018-11-03T04:13:19.848Z,35.10
2018-11-03T04:15:49.414Z,33.80
2018-11-03T04:18:18.966Z,38.00
2018-11-03T04:20:48.583Z,36.77
2018-11-03T04:23:18.084Z,37.63
2018-11-03T04:25:52.035Z,38.00
2018-11-03T04:28:21.730Z,39.33
2018-11-03T04:30:51.344Z,34.90
2018-11-03T04:33:20.879Z,33.75
2018-11-03T04:35:50.433Z,37.87
2018-11-03T04:38:19.990Z,34.95
2018-11-03T04:40:49.538Z,36.57
2018-11-03T04:43:21.519Z,36.00
2018-11-03T04:45:51.023Z,39.87
2018-11-03T04:48:20.709Z,38.20
2018-11-03T04:50:50.267Z,35.53
2018-11-03T04:53:19.807Z,36.33
2018-11-03T04:55:49.349Z,37.73
2018-11-03T04:58:18.990Z,36.70
2018-11-03T05:00:49.049Z,38.67
2018-11-03T05:03:18.439Z,33.30
2018-11-03T05:05:47.838Z,33.33
2018-11-03T05:08:17.235Z,39.30
2018-11-03T05:10:46.695Z,37.87
2018-11-03T05:13:16.155Z,37.85
2018-11-03T05:15:45.595Z,38.10
2018-11-03T05:18:15.265Z,39.35
2018-11-03T05:20:44.675Z,40.60
2018-11-03T05:23:14.078Z,38.55
2018-11-03T05:25:43.514Z,40.30
2018-11-03T05:28:12.884Z,38.65
2018-11-03T05:30:42.294Z,38.27
2018-11-03T05:33:11.692Z,36.27
2018-11-03T05:35:41.055Z,38.33
2018-11-03T05:38:10.468Z,36.42
2018-11-03T05:40:39.921Z,36.33
2018-11-03T05:43:09.342Z,38.10
2018-11-03T05:45:38.815Z,35.90
2018-11-03T05:48:08.196Z,35.00
2018-11-03T05:50:37.548Z,36.07
2018-11-03T05:53:07.013Z,36.50
2018-11-03T05:55:36.386Z,37.37
2018-11-03T05:58:07.134Z,37.85
2018-11-03T06:00:36.795Z,38.77
2018-11-03T06:03:06.918Z,38.63
2018-11-03T06:05:36.576Z,33.53
2018-11-03T06:08:06.488Z,33.95
2018-11-03T06:10:36.163Z,37.33
2018-11-03T06:13:06.383Z,36.75
2018-11-03T06:15:35.939Z,39.03
2018-11-03T06:18:07.030Z,38.35
2018-11-03T06:20:36.615Z,40.37
2018-11-03T06:23:06.575Z,34.33
2018-11-03T06:25:36.203Z,35.33
2018-11-03T06:28:06.367Z,39.17
2018-11-03T06:30:35.887Z,38.77
2018-11-03T06:33:06.507Z,39.48
2018-11-03T06:35:36.016Z,39.33
2018-11-03T06:38:06.827Z,40.08
2018-11-03T06:40:36.542Z,41.53
2018-11-03T06:43:07.019Z,40.92
2018-11-03T06:45:36.673Z,39.70
2018-11-03T06:48:07.269Z,40.05
2018-11-03T06:50:37.018Z,40.40
2018-11-03T06:53:06.797Z,39.90
2018-11-03T06:55:36.555Z,40.70
2018-11-03T06:58:06.478Z,42.10
2018-11-03T07:00:36.087Z,43.07
2018-11-03T07:03:06.906Z,42.30
2018-11-03T07:05:36.473Z,40.07
2018-11-03T07:08:07.103Z,41.73
2018-11-03T07:10:36.669Z,46.20
2018-11-03T07:13:06.341Z,41.73
2018-11-03T07:15:35.924Z,43.10
2018-11-03T07:18:06.858Z,43.00
2018-11-03T07:20:36.468Z,42.43
2018-11-03T07:23:06.743Z,44.53
2018-11-03T07:25:36.334Z,46.30
2018-11-03T07:28:06.891Z,41.27
2018-11-03T07:30:36.434Z,43.20
2018-11-03T07:33:07.011Z,44.15
2018-11-03T07:35:36.630Z,46.53
2018-11-03T07:38:06.748Z,44.90
2018-11-03T07:40:36.556Z,47.63
2018-11-03T07:43:06.311Z,43.47
2018-11-03T07:45:35.979Z,45.53
2018-11-03T07:48:06.621Z,46.40
2018-11-03T07:50:36.156Z,44.03
2018-11-03T07:53:06.624Z,44.67
2018-11-03T07:55:36.295Z,45.77
2018-11-03T07:58:06.852Z,45.70
2018-11-03T08:00:36.440Z,45.78
2018-11-03T08:03:06.035Z,45.87
2018-11-03T08:05:35.490Z,45.50
2018-11-03T08:08:06.798Z,42.73
2018-11-03T08:10:36.210Z,44.18
2018-11-03T08:13:06.929Z,45.03
2018-11-03T08:15:36.461Z,47.03
2018-11-03T08:18:06.752Z,44.80
2018-11-03T08:20:36.184Z,42.17
2018-11-03T08:23:06.505Z,44.45
2018-11-03T08:25:44.842Z,41.07
2018-11-03T08:28:14.238Z,42.60
2018-11-03T08:30:43.786Z,41.53
2018-11-03T08:33:13.218Z,40.75
2018-11-03T08:35:42.635Z,42.67
2018-11-03T08:38:12.061Z,39.92
2018-11-03T08:40:41.557Z,42.43
2018-11-03T08:43:11.019Z,39.33
2018-11-03T08:45:40.531Z,38.73
2018-11-03T08:48:10.024Z,43.20
2018-11-03T08:50:39.956Z,41.47
2018-11-03T08:53:09.385Z,40.57
2018-11-03T08:55:39.209Z,37.90
2018-11-03T08:58:08.695Z,38.60
2018-11-03T09:00:38.332Z,36.77
2018-11-03T09:03:09.049Z,40.50
2018-11-03T09:05:42.367Z,36.73
2018-11-03T09:08:11.870Z,36.67
2018-11-03T09:10:41.322Z,36.63
2018-11-03T09:13:10.737Z,34.83
2018-11-03T09:15:40.897Z,37.17
2018-11-03T09:18:10.374Z,36.30
2018-11-03T09:20:40.000Z,33.80
2018-11-03T09:23:09.423Z,34.30
2018-11-03T09:25:38.830Z,33.83
2018-11-03T09:28:08.288Z,32.20
2018-11-03T09:30:37.760Z,31.20
2018-11-03T09:33:07.202Z,31.60
2018-11-03T09:35:36.712Z,31.80
2018-11-03T09:38:06.623Z,31.48
2018-11-03T09:40:36.027Z,29.47
2018-11-03T09:43:07.216Z,31.50
2018-11-03T09:45:36.650Z,30.17
2018-11-03T09:48:06.743Z,31.45
2018-11-03T09:50:36.192Z,32.03
2018-11-03T09:53:07.300Z,28.07
2018-11-03T09:55:36.731Z,29.37
2018-11-03T09:58:06.440Z,26.90
2018-11-03T10:00:35.877Z,26.80
2018-11-03T10:03:06.442Z,25.78
2018-11-03T10:05:35.782Z,25.57
2018-11-03T10:08:09.452Z,27.83
2018-11-03T10:10:39.757Z,26.17
2018-11-03T10:13:09.105Z,27.97
2018-11-03T10:15:38.576Z,28.20
2018-11-03T10:18:07.968Z,28.33
2018-11-03T10:20:37.413Z,27.37
2018-11-03T10:23:06.989Z,26.07
2018-11-03T10:25:36.243Z,27.67
2018-11-03T10:28:06.639Z,30.20
2018-11-03T10:30:36.076Z,26.23
2018-11-03T10:33:06.195Z,26.05
2018-11-03T10:35:35.985Z,26.47
2018-11-03T10:38:06.074Z,24.53
2018-11-03T10:40:35.485Z,25.07
2018-11-03T10:43:06.439Z,24.80
2018-11-03T10:45:35.856Z,25.43
2018-11-03T10:48:06.750Z,23.97
2018-11-03T10:50:36.180Z,23.77
2018-11-03T10:53:07.002Z,23.65
2018-11-03T10:55:36.429Z,23.73
2018-11-03T10:58:06.200Z,24.25
2018-11-03T11:00:40.740Z,24.13
2018-11-03T11:03:15.242Z,22.13
2018-11-03T11:05:49.954Z,23.80
2018-11-03T11:08:24.473Z,21.15
2018-11-03T11:10:59.213Z,21.43
2018-11-03T11:13:30.357Z,21.00
2018-11-03T11:15:59.884Z,20.33
2018-11-03T11:18:29.279Z,21.77
2018-11-03T11:20:58.763Z,20.90
2018-11-03T11:23:28.164Z,20.97
2018-11-03T11:25:57.564Z,20.97
2018-11-03T11:28:27.781Z,19.80
2018-11-03T11:30:57.208Z,19.00
2018-11-03T11:33:26.730Z,18.90
2018-11-03T11:36:11.179Z,18.43
2018-11-03T11:38:40.652Z,17.20
2018-11-03T11:41:10.027Z,16.80
2018-11-03T11:43:39.419Z,16.77
2018-11-03T11:46:08.841Z,16.77
2018-11-03T11:48:38.830Z,18.10
2018-11-03T11:51:08.212Z,16.57
2018-11-03T11:53:37.635Z,16.70
2018-11-03T11:56:07.249Z,17.00
2018-11-03T11:58:38.593Z,15.80
2018-11-03T12:01:08.041Z,16.23
2018-11-03T12:03:37.538Z,17.15
2018-11-03T12:06:07.199Z,17.13
2018-11-03T12:08:36.688Z,17.10
2018-11-03T12:14:21.165Z,17.83
2018-11-03T12:16:51.092Z,17.80
2018-11-03T12:19:20.451Z,18.20
2018-11-03T12:21:51.771Z,17.80
2018-11-03T12:24:21.126Z,16.87
2018-11-03T12:26:50.637Z,16.47
2018-11-03T12:29:21.061Z,16.25
2018-11-03T12:31:51.345Z,16.37
2018-11-03T12:34:20.773Z,16.85
2018-11-03T12:36:50.169Z,14.47
2018-11-03T12:39:19.515Z,14.70
2018-11-03T12:41:48.974Z,15.20
2018-11-03T12:44:18.329Z,13.70
2018-11-03T12:46:47.754Z,12.67
2018-11-03T12:49:17.118Z,11.85
2018-11-03T12:51:46.594Z,11.50
2018-11-03T12:54:15.991Z,9.90
2018-11-03T12:56:45.806Z,9.23
2018-11-03T12:59:15.308Z,10.10
2018-11-03T13:01:44.636Z,8.90
2018-11-03T13:04:13.984Z,9.20
2018-11-03T13:06:43.411Z,9.47
2018-11-03T13:09:12.772Z,9.40
2018-11-03T13:11:42.196Z,8.80
2018-11-03T13:14:11.582Z,8.90
2018-11-03T13:16:40.949Z,8.63
2018-11-03T13:19:10.372Z,8.08
2018-11-03T13:21:39.927Z,8.10
2018-11-03T13:24:09.330Z,8.10
2018-11-03T13:26:38.686Z,8.10
2018-11-03T13:29:08.327Z,8.63
2018-11-03T13:31:37.688Z,9.13
2018-11-03T13:34:07.420Z,9.60
2018-11-03T13:36:36.874Z,10.07
2018-11-03T13:39:08.366Z,10.80
2018-11-03T13:41:37.825Z,11.37
2018-11-03T13:44:07.257Z,11.70
2018-11-03T13:46:36.868Z,11.97
2018-11-03T13:49:06.317Z,12.68
2018-11-03T13:51:35.772Z,13.03
2018-11-03T13:54:07.661Z,12.50
2018-11-03T13:56:37.204Z,12.73
2018-11-03T13:59:06.726Z,12.20
2018-11-03T14:01:36.824Z,12.73
2018-11-03T14:04:06.249Z,12.30
2018-11-03T14:07:08.326Z,12.07
2018-11-03T14:09:38.027Z,12.30
2018-11-03T14:12:07.542Z,13.70
2018-11-03T14:14:36.958Z,12.43
2018-11-03T14:17:06.593Z,12.80
2018-11-03T14:19:36.101Z,12.83
2018-11-03T14:22:06.597Z,13.60
2018-11-03T14:24:36.036Z,12.93
2018-11-03T14:27:06.291Z,14.25
2018-11-03T14:29:35.646Z,14.10
2018-11-03T14:32:05.299Z,14.07
2018-11-03T14:34:34.686Z,13.83
2018-11-03T14:37:04.231Z,14.40
2018-11-03T14:39:33.627Z,14.20
2018-11-03T14:42:03.124Z,14.20
2018-11-03T14:44:32.620Z,14.33
2018-11-03T14:47:02.187Z,13.93
2018-11-03T14:49:31.554Z,14.83
2018-11-03T14:52:01.066Z,13.30
2018-11-03T14:54:30.392Z,14.83
2018-11-03T14:56:59.827Z,15.07
2018-11-03T14:59:29.206Z,14.87
2018-11-03T15:01:58.583Z,14.40
2018-11-03T15:04:27.985Z,15.33
2018-11-03T15:06:57.363Z,16.30
2018-11-03T15:09:26.855Z,15.60
2018-11-03T15:11:56.251Z,19.35
2018-11-03T15:14:25.741Z,16.83
2018-11-03T15:16:55.105Z,16.95
2018-11-03T15:19:25.539Z,16.10
2018-11-03T15:21:54.919Z,18.87
2018-11-03T15:24:24.319Z,18.10
2018-11-03T15:26:53.661Z,17.53
2018-11-03T15:29:23.099Z,18.45
2018-11-03T15:31:54.454Z,18.90
2018-11-03T15:34:24.005Z,19.55
2018-11-03T15:36:53.413Z,20.43
2018-11-03T15:39:22.828Z,20.32
2018-11-03T15:41:52.287Z,20.20
2018-11-03T15:44:21.717Z,21.07
2018-11-03T15:46:51.032Z,19.87
2018-11-03T15:49:20.379Z,21.27
2018-11-03T15:51:49.777Z,21.23
2018-11-03T15:54:19.186Z,21.47
2018-11-03T15:59:40.016Z,22.37
2018-11-03T16:02:12.597Z,21.67
2018-11-03T16:04:44.424Z,23.47
2018-11-03T16:07:16.468Z,23.63
2018-11-03T16:09:48.375Z,23.87
2018-11-03T16:12:20.637Z,24.33
2018-11-03T16:14:52.413Z,23.37
2018-11-03T16:17:27.629Z,24.27
2018-11-03T16:19:59.668Z,24.72
2018-11-03T16:22:32.467Z,24.18
2018-11-03T16:25:04.968Z,23.40
2018-11-03T16:27:38.009Z,24.33
2018-11-03T16:30:13.286Z,22.90
2018-11-03T16:32:45.483Z,24.67
2018-11-03T16:35:19.423Z,24.25
2018-11-03T16:37:51.456Z,23.27
2018-11-03T16:40:21.040Z,24.55
2018-11-03T16:42:50.624Z,26.23
2018-11-03T16:45:20.195Z,23.07
2018-11-03T16:47:49.754Z,25.60
2018-11-03T16:50:19.323Z,25.88
2018-11-03T16:52:48.918Z,25.40
2018-11-03T16:55:18.727Z,26.45
2018-11-03T16:57:48.495Z,25.27
2018-11-03T17:00:18.130Z,26.35
2018-11-03T17:02:47.802Z,29.63
2018-11-03T17:05:17.601Z,28.60
2018-11-03T17:07:47.327Z,28.07
2018-11-03T17:10:18.914Z,28.23
2018-11-03T17:12:48.737Z,27.17
2018-11-03T17:15:18.441Z,27.70
2018-11-03T17:17:48.237Z,29.53
2018-11-03T17:20:17.839Z,29.10
2018-11-03T17:22:47.523Z,29.43
2018-11-03T17:25:17.273Z,29.93
2018-11-03T17:27:46.753Z,27.13
2018-11-03T17:30:16.566Z,28.52
2018-11-03T17:32:46.066Z,26.70
2018-11-03T17:35:15.418Z,28.38
2018-11-03T17:37:45.075Z,29.47
2018-11-03T17:40:14.435Z,27.93
2018-11-03T17:42:43.832Z,28.50
2018-11-03T17:45:13.475Z,28.07
2018-11-03T17:47:42.835Z,29.07
2018-11-03T17:50:13.560Z,29.83
2018-11-03T17:52:43.385Z,30.03
2018-11-03T17:55:12.783Z,30.75
2018-11-03T17:57:42.232Z,28.83
2018-11-03T18:00:15.240Z,29.07
2018-11-03T18:02:46.146Z,29.67
2018-11-03T18:05:16.404Z,31.15
2018-11-03T18:07:45.802Z,32.73
2018-11-03T18:10:15.226Z,30.92
2018-11-03T18:12:44.945Z,31.23
2018-11-03T18:15:14.319Z,32.33
2018-11-03T18:17:43.794Z,33.83
2018-11-03T18:20:13.729Z,35.33
2018-11-03T18:22:43.084Z,36.23
2018-11-03T18:25:12.509Z,36.93
2018-11-03T18:27:42.948Z,36.17
2018-11-03T18:30:13.411Z,39.40
2018-11-03T18:32:43.100Z,38.80
2018-11-03T18:35:12.771Z,39.53
2018-11-03T18:37:42.184Z,38.90
2018-11-03T18:40:11.678Z,38.63
2018-11-03T18:42:41.047Z,37.00
2018-11-03T18:45:13.123Z,38.40
2018-11-03T18:47:42.679Z,36.70
2018-11-03T18:50:14.053Z,36.48
2018-11-03T18:52:43.511Z,38.80
2018-11-03T18:55:13.207Z,36.93
2018-11-03T18:57:42.760Z,35.63
2018-11-03T19:00:12.610Z,35.07
2018-11-03T19:02:42.305Z,35.90
2018-11-03T19:05:11.826Z,36.48
2018-11-03T19:07:41.425Z,36.97
2018-11-03T19:10:11.420Z,36.27
2018-11-03T19:12:40.857Z,36.67
2018-11-03T19:15:10.888Z,36.47
2018-11-03T19:17:40.714Z,37.47
2018-11-03T19:20:13.259Z,36.17
2018-11-03T19:22:42.803Z,34.70
2018-11-03T19:25:13.427Z,36.20
2018-11-03T19:27:42.939Z,38.10
2018-11-03T19:30:13.451Z,36.80
2018-11-03T19:32:43.966Z,36.43
2018-11-03T19:35:13.348Z,37.83
2018-11-03T19:37:42.944Z,38.77
2018-11-03T19:40:13.322Z,37.30
2018-11-03T19:42:43.013Z,38.90
2018-11-03T19:45:12.804Z,39.37
2018-11-03T19:47:42.162Z,38.00
2018-11-03T19:50:11.774Z,36.63
2018-11-03T19:52:41.147Z,40.15
2018-11-03T19:55:10.539Z,37.58
2018-11-03T19:57:40.009Z,40.23
2018-11-03T20:00:18.014Z,40.83
2018-11-03T20:02:47.560Z,39.73
2018-11-03T20:05:16.867Z,37.23
2018-11-03T20:07:46.392Z,40.13
2018-11-03T20:10:15.895Z,39.97
2018-11-03T20:12:45.194Z,36.80
2018-11-03T20:15:14.761Z,37.83
2018-11-03T20:17:44.246Z,38.67
2018-11-03T20:20:14.314Z,36.60
2018-11-03T20:22:43.755Z,40.53
2018-11-03T20:25:13.671Z,39.33
2018-11-03T20:27:43.063Z,40.93
2018-11-03T20:30:14.080Z,38.42
2018-11-03T20:32:43.994Z,40.20
2018-11-03T20:35:13.390Z,40.10
2018-11-03T20:37:42.707Z,39.97
2018-11-03T20:40:13.330Z,41.75
2018-11-03T20:42:42.815Z,42.07
2018-11-03T20:45:12.543Z,41.48
2018-11-03T20:47:42.041Z,39.90
2018-11-03T20:50:14.012Z,41.47
2018-11-03T20:52:43.374Z,41.67
2018-11-03T20:55:24.942Z,43.10
2018-11-03T20:57:54.417Z,43.97
2018-11-03T21:00:24.356Z,41.50
2018-11-03T21:02:54.051Z,42.83
2018-11-03T21:05:23.751Z,43.60
2018-11-03T21:07:53.445Z,43.27
2018-11-03T21:10:23.387Z,42.87
2018-11-03T21:12:53.088Z,41.10
2018-11-03T21:15:23.698Z,39.57
2018-11-03T21:17:53.226Z,39.57
2018-11-03T21:20:22.736Z,42.13
2018-11-03T21:22:52.586Z,40.93
2018-11-03T21:25:22.154Z,39.23
2018-11-03T21:27:51.928Z,43.03
2018-11-03T21:30:21.549Z,40.57
2018-11-03T21:32:53.295Z,42.67
2018-11-03T21:35:22.914Z,41.07
2018-11-03T21:37:52.518Z,37.87
2018-11-03T21:40:22.157Z,40.95
2018-11-03T21:42:51.855Z,41.83
2018-11-03T21:45:21.542Z,42.10
2018-11-03T21:47:51.079Z,43.30
2018-11-03T21:50:20.678Z,40.73
2018-11-03T21:52:50.218Z,41.23
2018-11-03T21:55:19.786Z,42.63
2018-11-03T21:57:49.332Z,42.33
2018-11-03T22:00:18.891Z,42.50
2018-11-03T22:02:56.746Z,43.30
2018-11-03T22:05:26.377Z,44.23
2018-11-03T22:07:56.024Z,42.17
2018-11-03T22:10:25.733Z,41.20
2018-11-03T22:12:55.371Z,42.30
2018-11-03T22:15:24.725Z,42.00
2018-11-03T22:17:54.191Z,42.83
2018-11-03T22:20:23.538Z,44.03
2018-11-03T22:22:53.054Z,39.27
2018-11-03T22:25:22.620Z,40.90
2018-11-03T22:27:53.051Z,43.03
2018-11-03T22:30:22.404Z,42.27
2018-11-03T22:32:51.911Z,41.60
2018-11-03T22:35:21.328Z,43.33
2018-11-03T22:37:51.743Z,43.07
2018-11-03T22:40:21.102Z,42.67
2018-11-03T22:42:51.046Z,39.00
2018-11-03T22:45:20.447Z,42.27
2018-11-03T22:47:49.944Z,42.93
2018-11-03T22:50:19.372Z,44.65
2018-11-03T22:52:48.791Z,43.90
2018-11-03T22:55:22.055Z,41.90
2018-11-03T22:57:51.446Z,43.83
2018-11-03T23:00:20.926Z,39.63
2018-11-03T23:02:50.451Z,44.70
2018-11-03T23:05:19.825Z,41.77
2018-11-03T23:07:49.296Z,44.97
2018-11-03T23:10:18.654Z,42.00
2018-11-03T23:12:48.158Z,45.17
2018-11-03T23:15:17.553Z,44.00
2018-11-03T23:17:46.991Z,43.83
2018-11-03T23:20:16.412Z,45.92
2018-11-03T23:22:45.790Z,41.07
2018-11-03T23:25:15.110Z,42.87
2018-11-03T23:27:44.489Z,45.77
2018-11-03T23:30:13.942Z,46.70
2018-11-03T23:32:43.183Z,44.03
2018-11-03T23:35:14.927Z,41.20
2018-11-03T23:37:44.361Z,43.83
2018-11-03T23:40:13.765Z,44.50
2018-11-03T23:42:43.212Z,42.23
2018-11-03T23:45:12.582Z,44.48
2018-11-03T23:47:42.144Z,46.53
2018-11-03T23:50:12.963Z,44.50
2018-11-03T23:52:46.359Z,43.33
2018-11-03T23:55:15.739Z,42.67
2018-11-03T23:57:45.186Z,44.60
